Time;durP1;ratioP1;P1;durP2;ratioP2;P2;SDS_P1;SDS_P2;PMS_P1;PMS_P2;Temp;Humidity;BMP_temperature;BMP_pressure;BME280_temperature;BME280_humidity;BME280_pressure;Samples;Min_cycle;Max_cycle;Signal;HPM_P1;HPM_P2
2022/01/12 00:00:09;;;;;;;47.95;26.40;;;;;;;3.18;97.95;103622.84;5093929;28;20035;-76
2022/01/12 00:02:35;;;;;;;46.88;25.45;;;;;;;3.26;97.31;103624.97;5094207;28;20028;-76
2022/01/12 00:05:03;;;;;;;57.17;27.08;;;;;;;3.33;97.28;103624.41;5093456;28;20040;-77
2022/01/12 00:07:28;;;;;;;47.65;25.55;;;;;;;3.25;97.37;103633.88;5093613;28;20093;-76
2022/01/12 00:09:53;;;;;;;50.65;27.42;;;;;;;3.27;97.57;103635.47;5076662;28;20066;-75
2022/01/12 00:12:19;;;;;;;55.10;29.05;;;;;;;3.29;97.63;103640.66;5073111;28;20051;-77
2022/01/12 00:14:44;;;;;;;48.53;25.83;;;;;;;3.32;97.47;103646.63;5072786;28;20033;-76
2022/01/12 00:17:09;;;;;;;55.97;29.92;;;;;;;3.23;97.37;103641.09;5071965;28;20039;-76
2022/01/12 00:19:35;;;;;;;58.45;29.35;;;;;;;3.24;97.79;103648.97;5072852;28;20503;-75
2022/01/12 00:22:00;;;;;;;54.13;29.27;;;;;;;3.32;97.75;103659.06;5073125;28;20051;-75
2022/01/12 00:24:29;;;;;;;66.93;29.92;;;;;;;3.30;97.47;103659.16;5073079;28;20030;-76
2022/01/12 00:35:06;;;;;;;51.22;28.30;;;;;;;3.26;97.88;103644.38;5092749;28;20139;-76
2022/01/12 00:37:32;;;;;;;56.22;29.25;;;;;;;3.29;97.52;103632.69;5074807;28;20118;-76
2022/01/12 00:39:58;;;;;;;59.58;30.23;;;;;;;3.32;97.60;103619.22;5074497;28;20043;-76
2022/01/12 00:42:27;;;;;;;60.63;31.30;;;;;;;3.29;97.70;103616.75;5107877;28;20035;-76
2022/01/12 00:44:53;;;;;;;68.13;31.10;;;;;;;3.34;97.75;103614.63;5113063;28;20039;-75
2022/01/12 00:47:19;;;;;;;58.60;29.13;;;;;;;3.37;97.50;103611.75;5113788;28;20138;-76
2022/01/12 00:49:44;;;;;;;59.03;31.08;;;;;;;3.31;97.81;103612.19;5091072;28;20083;-77
2022/01/12 00:52:10;;;;;;;58.72;27.90;;;;;;;3.36;98.01;103610.06;5092733;28;20104;-76
2022/01/12 00:54:36;;;;;;;64.97;29.23;;;;;;;3.34;97.88;103611.97;5092478;28;20751;-76
2022/01/12 00:57:02;;;;;;;58.97;28.85;;;;;;;3.37;97.99;103631.22;5074445;28;20072;-75
2022/01/12 00:59:27;;;;;;;57.47;30.70;;;;;;;3.39;97.44;103639.91;5093291;28;20036;-76
2022/01/12 01:01:53;;;;;;;74.05;31.27;;;;;;;3.43;97.73;103641.41;5092917;28;20108;-76
2022/01/12 01:04:19;;;;;;;72.57;30.02;;;;;;;3.42;97.32;103634.38;5092782;28;20040;-76
2022/01/12 01:06:44;;;;;;;68.93;32.15;;;;;;;3.37;97.54;103633.88;5092473;28;20039;-76
2022/01/12 01:09:11;;;;;;;70.20;29.70;;;;;;;3.40;98.21;103636.28;5070762;28;20032;-75
2022/01/12 01:11:36;;;;;;;58.60;28.55;;;;;;;3.39;97.84;103634.59;5072799;28;20040;-76
2022/01/12 01:14:12;;;;;;;59.92;29.52;;;;;;;3.39;98.39;103631.09;5072347;28;20086;-76
2022/01/12 01:27:18;;;;;;;66.85;30.85;;;;;;;3.40;97.69;103635.47;5072440;28;20093;-76
2022/01/12 01:29:43;;;;;;;78.25;33.42;;;;;;;3.52;98.05;103637.22;5072868;28;20041;-76
2022/01/12 01:32:11;;;;;;;68.25;30.35;;;;;;;3.53;97.82;103638.91;5087822;28;20074;-76
2022/01/12 01:34:43;;;;;;;65.55;32.30;;;;;;;3.51;98.00;103632.88;5096473;28;20086;-75
2022/01/12 01:37:08;;;;;;;73.22;31.25;;;;;;;3.52;97.95;103614.13;5096577;28;20024;-76
2022/01/12 01:39:33;;;;;;;65.95;30.80;;;;;;;3.48;97.61;103630.41;5096575;28;20111;-76
2022/01/12 01:42:06;;;;;;;69.70;32.10;;;;;;;3.49;97.82;103640.97;5107822;28;20110;-76
2022/01/12 01:55:12;;;;;;;67.43;30.33;;;;;;;3.45;98.20;103667.84;5096292;28;20438;-76
2022/01/12 01:57:39;;;;;;;65.40;30.55;;;;;;;3.46;98.30;103661.56;5096248;28;20548;-76
2022/01/12 02:00:08;;;;;;;77.25;31.30;;;;;;;3.54;97.86;103673.34;5095937;28;20036;-77
2022/01/12 02:02:34;;;;;;;75.43;32.22;;;;;;;3.49;97.87;103683.50;5096747;28;20115;-76
2022/01/12 02:04:59;;;;;;;68.20;32.53;;;;;;;3.51;98.16;103699.31;5096042;28;20503;-77
2022/01/12 02:07:24;;;;;;;79.47;31.75;;;;;;;3.56;97.65;103697.16;5095947;28;20028;-77
2022/01/12 02:09:50;;;;;;;69.22;32.97;;;;;;;3.53;97.88;103697.41;5095445;28;20032;-76
2022/01/12 02:12:24;;;;;;;76.32;32.33;;;;;;;3.52;98.38;103701.00;5095825;28;20412;-77
2022/01/12 02:14:51;;;;;;;72.20;32.40;;;;;;;3.50;98.75;103710.91;5095876;28;20055;-75
2022/01/12 02:17:21;;;;;;;67.50;31.83;;;;;;;3.55;97.87;103714.09;5096137;28;20050;-76
2022/01/12 02:36:15;;;;;;;82.13;33.80;;;;;;;3.70;97.81;103760.00;5095672;28;20043;-77
2022/01/12 02:41:24;;;;;;;103.03;35.08;;;;;;;3.53;98.19;103774.50;5102144;28;20093;-75
2022/01/12 02:54:42;;;;;;;95.20;34.35;;;;;;;3.60;98.61;103781.06;5075078;28;20040;-75
2022/01/12 02:57:08;;;;;;;97.60;34.50;;;;;;;3.60;98.39;103778.41;5074788;28;20058;-75
2022/01/12 02:59:33;;;;;;;92.18;33.42;;;;;;;3.57;99.08;103786.63;5075133;28;20455;-76
2022/01/12 03:04:25;;;;;;;106.43;34.70;;;;;;;3.58;98.40;103772.34;5074748;28;20115;-75
2022/01/12 03:06:52;;;;;;;100.53;31.92;;;;;;;3.49;99.07;103762.38;5074284;28;20107;-75
2022/01/12 03:09:17;;;;;;;102.00;32.22;;;;;;;3.54;99.13;103761.09;5056185;28;20036;-76
2022/01/12 03:11:43;;;;;;;116.80;34.78;;;;;;;3.55;98.74;103762.81;5074945;28;20031;-76
2022/01/12 03:14:09;;;;;;;109.05;35.53;;;;;;;3.58;98.81;103750.25;5074502;28;20047;-76
2022/01/12 03:16:35;;;;;;;112.38;33.63;;;;;;;3.65;98.27;103740.88;5074347;28;20093;-76
2022/01/12 03:19:02;;;;;;;125.88;34.85;;;;;;;3.58;98.54;103739.63;5074041;28;20032;-76
2022/01/12 03:21:31;;;;;;;105.05;32.13;;;;;;;3.61;98.69;103732.28;5074158;28;20029;-76
2022/01/12 03:23:57;;;;;;;126.25;36.00;;;;;;;3.58;98.71;103735.13;5056135;28;20032;-76
2022/01/12 03:26:25;;;;;;;99.32;33.78;;;;;;;3.65;98.77;103736.41;5056789;28;20107;-76
2022/01/12 03:28:55;;;;;;;99.55;32.08;;;;;;;3.54;98.71;103745.13;5074110;28;20454;-76
2022/01/12 03:31:23;;;;;;;101.43;33.47;;;;;;;3.60;98.72;103748.34;5074100;28;20029;-76
2022/01/12 03:33:58;;;;;;;127.88;38.65;;;;;;;3.58;98.96;103758.22;5073834;28;20089;-75
2022/01/12 03:38:51;;;;;;;133.38;35.83;;;;;;;3.61;98.92;103758.00;5073969;28;20039;-76
2022/01/12 03:41:17;;;;;;;118.60;35.53;;;;;;;3.65;98.78;103763.00;5074297;28;20071;-76
2022/01/12 03:43:42;;;;;;;119.22;34.63;;;;;;;3.62;98.92;103768.53;5088819;28;20491;-75
2022/01/12 03:46:08;;;;;;;115.38;35.00;;;;;;;3.55;99.15;103773.44;5109988;28;20044;-76
2022/01/12 03:48:33;;;;;;;126.03;33.78;;;;;;;3.54;99.22;103776.19;5093822;28;20040;-75
2022/01/12 03:50:59;;;;;;;129.27;35.58;;;;;;;3.56;99.13;103774.25;5093865;28;20062;-75
2022/01/12 03:53:24;;;;;;;137.38;34.58;;;;;;;3.53;99.06;103785.13;5094260;28;20028;-75
2022/01/12 03:55:50;;;;;;;118.53;35.85;;;;;;;3.50;99.22;103782.66;5093550;28;20813;-76
2022/01/12 03:58:15;;;;;;;122.30;34.92;;;;;;;3.52;99.64;103788.72;5094119;28;20506;-76
2022/01/12 04:00:41;;;;;;;127.47;35.80;;;;;;;3.52;99.68;103784.28;5093968;28;20059;-76
2022/01/12 04:03:07;;;;;;;128.38;35.55;;;;;;;3.58;99.43;103795.44;5093987;28;20438;-76
2022/01/12 04:08:19;;;;;;;113.47;33.42;;;;;;;3.52;99.03;103796.69;5093210;28;20062;-76
2022/01/12 04:10:49;;;;;;;132.85;34.42;;;;;;;3.58;99.21;103792.78;5093365;28;20522;-76
2022/01/12 04:13:15;;;;;;;125.40;35.17;;;;;;;3.73;98.91;103800.53;5093614;28;20036;-76
2022/01/12 04:15:47;;;;;;;140.23;38.35;;;;;;;3.61;99.07;103793.41;5093626;28;20119;-76
2022/01/12 04:18:12;;;;;;;125.32;37.83;;;;;;;3.61;99.12;103782.78;5093379;28;20024;-76
2022/01/12 04:20:44;;;;;;;126.47;35.80;;;;;;;3.62;98.87;103786.31;5093718;28;20523;-75
2022/01/12 04:23:19;;;;;;;160.35;38.38;;;;;;;3.60;99.32;103775.75;5093366;28;20032;-75
2022/01/12 04:25:53;;;;;;;138.75;36.28;;;;;;;3.59;99.52;103779.38;5093359;28;20047;-75
2022/01/12 04:28:21;;;;;;;129.40;35.63;;;;;;;3.73;99.56;103773.94;5093145;28;20495;-76
2022/01/12 04:30:47;;;;;;;120.13;33.83;;;;;;;3.72;98.83;103774.03;5093032;28;20403;-76
2022/01/12 04:33:14;;;;;;;125.53;35.70;;;;;;;3.72;98.68;103769.56;5093291;28;20036;-76
2022/01/12 04:35:46;;;;;;;139.45;37.33;;;;;;;3.68;98.96;103775.22;5093696;28;20488;-76
2022/01/12 04:38:13;;;;;;;120.22;36.60;;;;;;;3.66;99.59;103782.44;5092806;28;20044;-75
2022/01/12 04:40:38;;;;;;;123.45;36.47;;;;;;;3.78;99.49;103784.22;5092842;28;20422;-76
2022/01/12 04:43:04;;;;;;;118.68;37.53;;;;;;;3.83;98.87;103782.97;5093249;28;20052;-75
2022/01/12 04:45:38;;;;;;;122.95;37.72;;;;;;;3.74;99.35;103778.28;5092842;28;20032;-75
2022/01/12 04:50:55;;;;;;;141.52;35.70;;;;;;;3.76;99.04;103780.84;5010727;28;20034;-75
2022/01/12 04:53:21;;;;;;;122.07;35.88;;;;;;;3.71;98.56;103782.97;5010990;28;20085;-76
2022/01/12 04:55:48;;;;;;;130.57;35.85;;;;;;;3.83;99.41;103779.47;5010662;28;20157;-76
2022/01/12 04:58:17;;;;;;;132.57;36.00;;;;;;;3.74;99.24;103793.38;5010949;28;20046;-76
2022/01/12 05:00:44;;;;;;;133.25;36.65;;;;;;;3.72;99.30;103793.50;5008889;28;20537;-75
2022/01/12 05:13:52;;;;;;;131.75;34.20;;;;;;;3.67;99.55;103814.25;4990742;28;20133;-75
2022/01/12 05:16:19;;;;;;;140.98;35.72;;;;;;;3.66;99.27;103809.88;5001183;28;20436;-76
2022/01/12 05:18:46;;;;;;;144.02;36.63;;;;;;;3.65;99.05;103805.53;4994075;28;20482;-76
2022/01/12 05:21:12;;;;;;;144.25;37.60;;;;;;;3.65;99.54;103802.03;5010352;28;20038;-75
2022/01/12 05:23:38;;;;;;;143.75;36.40;;;;;;;3.66;99.36;103804.56;5010901;28;20416;-76
2022/01/12 05:26:04;;;;;;;138.18;37.53;;;;;;;3.70;99.05;103807.84;5010477;28;20041;-76
2022/01/12 05:28:30;;;;;;;153.05;35.45;;;;;;;3.71;99.47;103805.13;5057078;28;20043;-75
2022/01/12 05:30:56;;;;;;;135.10;35.67;;;;;;;3.68;99.31;103800.00;5085378;28;20043;-76
2022/01/12 05:33:25;;;;;;;132.70;37.58;;;;;;;3.70;99.22;103803.41;5072270;28;20089;-76
2022/01/12 05:35:52;;;;;;;151.82;36.55;;;;;;;3.68;99.27;103813.28;5071846;28;20080;-76
2022/01/12 05:38:18;;;;;;;138.98;33.15;;;;;;;3.69;99.56;103799.06;5072490;28;20064;-75
2022/01/12 05:40:46;;;;;;;147.68;36.70;;;;;;;3.76;99.62;103810.09;5071667;28;20064;-75
2022/01/12 05:43:13;;;;;;;145.85;37.08;;;;;;;3.75;99.27;103813.72;5072092;28;20035;-75
2022/01/12 05:45:40;;;;;;;140.48;35.67;;;;;;;3.71;99.16;103818.41;5090362;28;20043;-75
2022/01/12 05:50:35;;;;;;;128.88;35.28;;;;;;;3.58;99.47;103828.19;5052060;28;20397;-74
2022/01/12 05:53:02;;;;;;;128.93;36.78;;;;;;;3.58;99.51;103830.84;5051337;28;20029;-76
2022/01/12 05:55:27;;;;;;;112.95;33.95;;;;;;;3.54;99.10;103845.28;5066564;28;20037;-75
2022/01/12 05:57:53;;;;;;;92.80;31.58;;;;;;;3.58;99.23;103836.16;5051598;28;20033;-75
2022/01/12 06:00:20;;;;;;;93.57;31.52;;;;;;;3.55;99.53;103834.59;5051588;28;20116;-75
2022/01/12 06:02:45;;;;;;;101.18;31.55;;;;;;;3.60;98.71;103839.56;5051124;28;20033;-74
2022/01/12 06:05:14;;;;;;;93.47;32.10;;;;;;;3.63;99.35;103844.69;5051905;28;20048;-74
2022/01/12 06:07:41;;;;;;;104.53;31.50;;;;;;;3.70;98.99;103850.41;5051118;28;20043;-75
2022/01/12 06:10:07;;;;;;;101.30;32.15;;;;;;;3.73;99.22;103861.69;5062721;28;20094;-76
2022/01/12 06:12:32;;;;;;;112.30;31.90;;;;;;;3.70;99.18;103853.91;5063593;28;20044;-75
2022/01/12 06:14:58;;;;;;;106.95;32.28;;;;;;;3.71;98.79;103860.09;5070886;28;20032;-75
2022/01/12 06:17:23;;;;;;;128.98;34.38;;;;;;;3.73;99.21;103855.53;5072277;28;20537;-75
2022/01/12 06:19:49;;;;;;;102.78;32.28;;;;;;;3.74;98.72;103854.56;5073510;28;20043;-75
2022/01/12 06:22:14;;;;;;;105.28;32.85;;;;;;;3.73;99.22;103844.88;5088343;28;20034;-75
2022/01/12 06:24:39;;;;;;;104.50;32.28;;;;;;;3.77;98.94;103854.34;5073692;28;20040;-74
2022/01/12 06:27:05;;;;;;;105.65;31.25;;;;;;;3.89;99.18;103845.53;5073325;28;20045;-74
2022/01/12 06:30:02;;;;;;;107.22;31.42;;;;;;;3.83;98.65;103844.16;5077114;28;20043;-75
2022/01/12 06:32:28;;;;;;;97.75;32.05;;;;;;;3.79;98.71;103844.47;5072673;28;20099;-76
2022/01/12 06:34:53;;;;;;;94.20;30.40;;;;;;;3.83;98.81;103849.47;5074242;28;20060;-76
2022/01/12 06:37:37;;;;;;;103.50;32.97;;;;;;;3.83;98.50;103868.09;5093217;28;20404;-75
2022/01/12 06:40:03;;;;;;;96.18;31.75;;;;;;;3.79;98.61;103873.72;5094701;28;20039;-75
2022/01/12 06:42:28;;;;;;;95.82;31.90;;;;;;;3.79;98.91;103866.59;5095103;28;20055;-73
2022/01/12 06:44:54;;;;;;;89.63;32.30;;;;;;;3.75;98.43;103878.41;5094820;28;20044;-74
2022/01/12 06:47:19;;;;;;;82.75;30.00;;;;;;;3.75;98.48;103878.41;5095676;28;20085;-73
2022/01/12 06:49:45;;;;;;;70.63;29.40;;;;;;;3.74;99.02;103874.03;5098737;28;20740;-74
2022/01/12 06:52:10;;;;;;;79.10;27.95;;;;;;;3.75;98.39;103891.69;5093690;28;20102;-74
2022/01/12 06:54:35;;;;;;;82.30;26.52;;;;;;;3.84;98.62;103891.06;5075609;28;20032;-74
2022/01/12 06:57:02;;;;;;;65.68;20.52;;;;;;;3.83;98.90;103894.69;5094235;28;20027;-74
2022/01/12 06:59:27;;;;;;;65.28;20.92;;;;;;;3.86;98.03;103896.25;5095830;28;20027;-74
2022/01/12 07:01:53;;;;;;;64.65;22.33;;;;;;;3.85;98.10;103903.41;5086293;28;20402;-73
2022/01/12 07:04:20;;;;;;;67.15;21.02;;;;;;;3.89;98.79;103910.19;5097080;28;20376;-74
2022/01/12 07:06:45;;;;;;;65.15;21.42;;;;;;;3.91;98.63;103902.13;5094617;28;20052;-74
2022/01/12 07:09:10;;;;;;;71.78;24.73;;;;;;;3.90;98.52;103906.59;5093772;28;20499;-75
2022/01/12 07:11:36;;;;;;;72.90;24.42;;;;;;;3.86;98.41;103905.09;5094873;28;20031;-73
2022/01/12 07:14:02;;;;;;;69.32;22.30;;;;;;;3.88;98.09;103911.16;5094323;28;20040;-75
2022/01/12 07:16:27;;;;;;;68.50;20.67;;;;;;;3.89;98.35;103927.97;5094342;28;20054;-74
2022/01/12 07:18:52;;;;;;;69.30;21.98;;;;;;;3.86;98.10;103923.72;5076244;28;20458;-73
2022/01/12 07:21:18;;;;;;;82.07;22.65;;;;;;;3.88;98.67;103927.13;5094319;28;20107;-74
2022/01/12 07:23:44;;;;;;;67.38;22.85;;;;;;;3.86;98.24;103923.72;5094609;28;20028;-74
2022/01/12 07:26:10;;;;;;;56.00;19.40;;;;;;;3.91;97.86;103931.38;5093836;28;20495;-73
2022/01/12 07:28:35;;;;;;;63.15;20.85;;;;;;;3.92;98.41;103936.59;5093300;28;20044;-74
2022/01/12 07:31:01;;;;;;;63.90;21.48;;;;;;;3.89;97.65;103955.41;5110935;28;20052;-73
2022/01/12 07:33:26;;;;;;;67.35;22.35;;;;;;;3.90;97.62;103951.81;5114630;28;20046;-74
2022/01/12 07:35:53;;;;;;;57.92;19.15;;;;;;;3.88;98.04;103953.72;5115029;28;20035;-73
2022/01/12 07:38:18;;;;;;;65.13;20.77;;;;;;;3.88;98.19;103960.84;5110191;28;20089;-72
2022/01/12 07:40:43;;;;;;;54.00;19.10;;;;;;;3.87;98.26;103962.63;5103537;28;20437;-74
2022/01/12 07:43:09;;;;;;;67.32;20.65;;;;;;;3.89;97.85;103959.91;5103886;28;20031;-73
2022/01/12 07:45:36;;;;;;;59.90;20.52;;;;;;;3.90;98.24;103965.09;5098231;28;20062;-74
2022/01/12 07:48:01;;;;;;;67.03;20.50;;;;;;;3.98;97.87;103961.91;5108549;28;20043;-73
2022/01/12 07:50:27;;;;;;;54.33;19.20;;;;;;;4.01;97.76;103972.34;5114489;28;20031;-72
2022/01/12 07:52:53;;;;;;;55.97;17.02;;;;;;;4.09;97.32;103967.31;5113835;28;20054;-73
2022/01/12 07:55:23;;;;;;;56.42;16.48;;;;;;;4.03;97.70;103962.47;5113647;28;20036;-74
2022/01/12 07:57:50;;;;;;;55.42;18.45;;;;;;;4.06;97.28;103981.72;5100500;28;20753;-74
2022/01/12 08:00:16;;;;;;;48.03;16.85;;;;;;;4.01;97.31;103977.69;5091944;28;20034;-74
2022/01/12 08:02:42;;;;;;;50.40;16.88;;;;;;;4.02;97.98;103974.91;5088194;28;20484;-74
2022/01/12 08:05:09;;;;;;;57.42;20.02;;;;;;;4.04;97.85;103974.78;5089156;28;20035;-75
2022/01/12 08:07:36;;;;;;;61.60;18.15;;;;;;;4.04;97.74;103978.31;5091725;28;20024;-74
2022/01/12 08:10:07;;;;;;;58.08;18.02;;;;;;;4.06;97.24;103975.53;5071089;28;20115;-73
2022/01/12 08:12:33;;;;;;;58.58;16.45;;;;;;;4.09;97.86;103973.50;5089879;28;20032;-73
2022/01/12 08:14:58;;;;;;;66.63;20.83;;;;;;;4.12;97.95;103973.31;5091222;28;20506;-74
2022/01/12 08:17:24;;;;;;;59.85;21.15;;;;;;;4.15;97.73;103957.13;5099021;28;20047;-73
2022/01/12 08:19:51;;;;;;;65.60;20.52;;;;;;;4.17;97.52;103954.34;5091808;28;20043;-74
2022/01/12 08:22:16;;;;;;;55.58;17.98;;;;;;;4.19;97.80;103961.28;5072996;28;20040;-73
2022/01/12 08:24:42;;;;;;;60.65;18.08;;;;;;;4.20;98.08;103965.66;5088605;28;20029;-76
2022/01/12 08:27:08;;;;;;;49.78;15.93;;;;;;;4.24;97.41;103968.94;5080355;28;20024;-74
2022/01/12 08:29:34;;;;;;;50.55;17.05;;;;;;;4.34;98.08;103978.81;5092694;28;20150;-73
2022/01/12 08:32:00;;;;;;;51.67;16.13;;;;;;;4.42;97.20;103995.09;5094718;28;20031;-73
2022/01/12 08:34:26;;;;;;;42.95;16.35;;;;;;;4.44;96.61;103992.34;5094782;28;20032;-74
2022/01/12 08:36:51;;;;;;;59.65;16.17;;;;;;;4.37;97.01;103991.06;5096003;28;20028;-74
2022/01/12 08:39:17;;;;;;;58.35;15.90;;;;;;;4.36;97.47;104003.53;5097842;28;20032;-72
2022/01/12 08:41:42;;;;;;;60.33;17.65;;;;;;;4.35;97.55;104006.28;5098468;28;20023;-74
2022/01/12 08:44:09;;;;;;;67.00;19.10;;;;;;;4.36;96.95;104008.84;5096222;28;20562;-76
2022/01/12 08:46:36;;;;;;;53.60;18.67;;;;;;;4.37;97.12;104017.69;5098658;28;20419;-73
2022/01/12 08:49:01;;;;;;;58.80;18.13;;;;;;;4.46;96.98;104017.06;5090901;28;20496;-73
2022/01/12 08:51:27;;;;;;;50.35;18.15;;;;;;;4.43;96.35;104020.78;5090868;28;20112;-74
2022/01/12 08:53:52;;;;;;;53.58;18.38;;;;;;;4.41;96.45;104020.03;5091191;28;20040;-75
2022/01/12 08:56:19;;;;;;;61.58;18.95;;;;;;;4.46;97.17;104025.88;5091114;28;20107;-74
2022/01/12 08:58:45;;;;;;;56.70;18.42;;;;;;;4.50;97.14;104023.88;5095695;28;20027;-75
2022/01/12 09:01:11;;;;;;;60.88;17.85;;;;;;;4.48;96.43;104023.97;5095772;28;20054;-73
2022/01/12 09:03:37;;;;;;;57.63;16.63;;;;;;;4.50;96.38;104033.66;5097567;28;20040;-74
2022/01/12 09:06:05;;;;;;;57.95;17.23;;;;;;;4.48;96.73;104028.47;5100124;28;20390;-74
2022/01/12 09:08:31;;;;;;;59.85;18.73;;;;;;;4.46;96.71;104036.53;5100990;28;20062;-74
2022/01/12 09:10:56;;;;;;;66.40;18.90;;;;;;;4.46;97.23;104039.19;5096354;28;20040;-73
2022/01/12 09:13:22;;;;;;;63.03;18.38;;;;;;;4.45;96.68;104033.97;5097074;28;20052;-75
2022/01/12 09:15:47;;;;;;;60.13;17.42;;;;;;;4.45;96.43;104044.63;5090146;28;20390;-75
2022/01/12 09:18:12;;;;;;;58.38;18.65;;;;;;;4.46;97.07;104038.38;5092553;28;20036;-75
2022/01/12 09:20:38;;;;;;;61.00;19.30;;;;;;;4.45;96.44;104044.63;5095050;28;20028;-74
2022/01/12 09:23:04;;;;;;;64.32;19.77;;;;;;;4.45;96.60;104049.97;5090078;28;20119;-75
2022/01/12 09:25:33;;;;;;;58.28;17.70;;;;;;;4.44;96.44;104059.75;5090307;28;20063;-75
2022/01/12 09:28:02;;;;;;;61.97;19.38;;;;;;;4.46;97.10;104063.16;5072586;28;20035;-75
2022/01/12 09:30:27;;;;;;;68.63;20.38;;;;;;;4.46;97.36;104073.81;5093725;28;20036;-74
2022/01/12 09:32:53;;;;;;;60.67;19.75;;;;;;;4.44;97.29;104078.38;5091048;28;20086;-75
2022/01/12 09:35:18;;;;;;;63.90;21.23;;;;;;;4.44;97.31;104081.06;5091042;28;20089;-74
2022/01/12 09:37:43;;;;;;;60.40;20.17;;;;;;;4.43;97.27;104087.34;5110354;28;20038;-73
2022/01/12 09:40:10;;;;;;;73.95;21.58;;;;;;;4.39;97.15;104088.50;5085795;28;20044;-73
2022/01/12 09:42:35;;;;;;;68.47;20.17;;;;;;;4.37;97.00;104079.78;5097472;28;20040;-74
2022/01/12 09:45:02;;;;;;;64.38;17.95;;;;;;;4.35;97.04;104078.16;5090979;28;20109;-73
2022/01/12 09:47:28;;;;;;;58.47;21.13;;;;;;;4.39;97.18;104085.84;5090687;28;20054;-73
2022/01/12 09:49:53;;;;;;;47.15;17.80;;;;;;;4.39;97.32;104087.66;5090587;28;20090;-74
2022/01/12 09:52:19;;;;;;;65.22;18.90;;;;;;;4.39;97.05;104082.31;5090759;28;20158;-74
2022/01/12 09:54:45;;;;;;;70.60;19.75;;;;;;;4.39;97.89;104085.00;5096069;28;20035;-75
2022/01/12 09:57:10;;;;;;;76.40;19.15;;;;;;;4.44;97.57;104091.69;5080124;28;20106;-74
2022/01/12 09:59:36;;;;;;;67.60;18.63;;;;;;;4.46;97.08;104096.94;5096260;28;20115;-73
2022/01/12 10:02:02;;;;;;;63.33;19.45;;;;;;;4.46;97.81;104089.78;5098656;28;20430;-74
2022/01/12 10:04:30;;;;;;;57.15;19.77;;;;;;;4.46;97.15;104088.97;5094217;28;20054;-74
2022/01/12 10:07:04;;;;;;;64.85;20.33;;;;;;;4.47;97.40;104093.31;5094378;28;20024;-75
2022/01/12 10:10:01;;;;;;;69.90;18.70;;;;;;;4.54;97.18;104083.09;5093479;28;20054;-74
2022/01/12 10:12:27;;;;;;;61.85;18.88;;;;;;;4.60;98.09;104088.00;5092156;28;20036;-75
2022/01/12 10:14:55;;;;;;;60.58;18.05;;;;;;;4.74;97.61;104082.53;5078677;28;20031;-75
2022/01/12 10:17:40;;;;;;;63.03;17.02;;;;;;;4.92;98.11;104095.41;5094286;28;20040;-65
2022/01/12 10:20:06;;;;;;;62.97;19.35;;;;;;;5.04;97.38;104088.34;5093493;28;20547;-64
2022/01/12 10:22:32;;;;;;;63.20;18.33;;;;;;;5.17;97.27;104089.16;5094206;28;20483;-67
2022/01/12 10:25:00;;;;;;;60.20;18.40;;;;;;;5.25;97.26;104087.66;5083812;28;20059;-64
2022/01/12 10:27:25;;;;;;;58.75;17.77;;;;;;;5.35;96.86;104087.84;5101131;28;20070;-63
2022/01/12 10:30:00;;;;;;;63.75;18.95;;;;;;;5.36;97.08;104086.91;5100042;28;20490;-64
2022/01/12 10:32:26;;;;;;;58.70;15.43;;;;;;;5.41;97.57;104087.41;5094028;28;20024;-64
2022/01/12 10:34:52;;;;;;;54.65;14.02;;;;;;;5.54;95.46;104090.88;5093870;28;20078;-65
2022/01/12 10:37:22;;;;;;;56.50;14.70;;;;;;;5.63;95.04;104076.00;5094259;28;20032;-65
2022/01/12 10:39:50;;;;;;;48.50;11.68;;;;;;;5.71;94.40;104084.28;5093915;28;20028;-66
2022/01/12 10:42:24;;;;;;;52.83;13.45;;;;;;;5.64;94.38;104091.06;5094147;28;20044;-65
2022/01/12 10:44:55;;;;;;;48.90;13.55;;;;;;;5.73;94.55;104096.56;5094136;28;20488;-65
2022/01/12 10:47:26;;;;;;;46.60;14.52;;;;;;;5.69;94.30;104095.09;5115273;28;20054;-65
2022/01/12 10:49:55;;;;;;;52.72;15.32;;;;;;;5.75;95.16;104101.78;5104899;28;20056;-65
2022/01/12 10:52:26;;;;;;;61.95;15.15;;;;;;;5.75;95.15;104089.28;5093693;28;20036;-66
2022/01/12 10:55:09;;;;;;;66.45;19.98;;;;;;;5.71;94.97;104094.97;5092694;28;20399;-65
2022/01/12 10:57:37;;;;;;;59.60;16.63;;;;;;;5.62;95.00;104091.16;5091825;28;20036;-64
2022/01/12 11:00:05;;;;;;;60.80;18.48;;;;;;;5.63;94.56;104084.88;5093223;28;20047;-65
2022/01/12 11:02:31;;;;;;;59.15;19.88;;;;;;;5.60;94.50;104090.41;5093505;28;20071;-79
2022/01/12 11:04:57;;;;;;;53.90;16.58;;;;;;;5.53;94.65;104093.66;5075593;28;20032;-80
2022/01/12 11:07:27;;;;;;;55.60;15.85;;;;;;;5.38;95.32;104092.97;5093667;28;20028;-78
2022/01/12 11:10:00;;;;;;;58.25;17.92;;;;;;;5.33;95.60;104087.09;5102463;28;20084;-78
2022/01/12 11:12:25;;;;;;;64.40;18.38;;;;;;;5.41;96.15;104076.72;5106997;28;20120;-78
2022/01/12 11:14:51;;;;;;;66.00;17.95;;;;;;;5.60;94.42;104082.41;5093566;28;20479;-78
2022/01/12 11:17:17;;;;;;;61.90;18.42;;;;;;;5.56;94.70;104086.28;5093800;28;20024;-78
2022/01/12 11:19:52;;;;;;;49.78;16.48;;;;;;;5.56;95.11;104088.09;5093458;28;20361;-77
2022/01/12 11:22:42;;;;;;;43.05;14.75;;;;;;;5.69;94.36;104094.22;5093316;28;20064;-76
2022/01/12 11:25:27;;;;;;;48.65;14.68;;;;;;;5.61;93.70;104088.59;5092102;28;20601;-77
2022/01/12 11:28:14;;;;;;;45.80;14.68;;;;;;;5.48;94.59;104093.16;5096898;28;20032;-78
2022/01/12 11:30:44;;;;;;;37.75;13.75;;;;;;;5.45;95.46;104096.88;5093621;28;20036;-78
2022/01/12 11:33:12;;;;;;;43.60;13.85;;;;;;;5.47;94.55;104092.28;5090890;28;20495;-79
2022/01/12 11:35:41;;;;;;;51.70;13.07;;;;;;;5.50;93.95;104094.75;5092164;28;20363;-77
2022/01/12 11:38:08;;;;;;;33.17;12.30;;;;;;;5.42;94.63;104091.78;5090994;28;20032;-77
2022/01/12 11:40:42;;;;;;;35.45;13.50;;;;;;;5.45;94.81;104090.69;5089535;28;20040;-77
2022/01/12 11:43:25;;;;;;;37.92;13.02;;;;;;;5.43;94.55;104090.81;5092078;28;20101;-79
2022/01/12 11:46:12;;;;;;;41.75;14.00;;;;;;;5.43;94.18;104096.13;5096804;28;20036;-75
2022/01/12 11:48:40;;;;;;;44.80;13.63;;;;;;;5.44;95.11;104084.53;5097819;28;20035;-79
2022/01/12 11:51:05;;;;;;;33.28;11.50;;;;;;;5.41;95.36;104079.41;5094367;28;20067;-79
2022/01/12 11:53:31;;;;;;;50.80;13.93;;;;;;;5.41;95.53;104076.72;5096881;28;20444;-78
2022/01/12 11:56:11;;;;;;;59.45;16.95;;;;;;;5.42;95.26;104078.44;5096168;28;20043;-76
2022/01/12 11:58:49;;;;;;;45.92;15.98;;;;;;;5.37;95.54;104069.91;5093681;28;20032;-78
2022/01/12 12:01:15;;;;;;;50.50;14.95;;;;;;;5.33;95.54;104063.97;5095641;28;20521;-77
2022/01/12 12:03:40;;;;;;;44.72;13.55;;;;;;;5.36;95.67;104052.22;5099637;28;20035;-77
2022/01/12 12:06:16;;;;;;;54.45;13.38;;;;;;;5.61;95.18;104054.78;5097538;28;20419;-76
2022/01/12 12:08:56;;;;;;;46.85;13.82;;;;;;;5.64;94.57;104038.53;5080078;28;20381;-76
2022/01/12 12:11:25;;;;;;;52.50;13.97;;;;;;;5.50;94.77;104043.22;5098174;28;20043;-77
2022/01/12 12:13:50;;;;;;;42.28;13.63;;;;;;;5.56;94.30;104038.28;5097636;28;20463;-78
2022/01/12 12:16:16;;;;;;;40.22;12.30;;;;;;;5.66;93.61;104047.28;5065591;28;20037;-78
2022/01/12 12:18:42;;;;;;;46.83;14.27;;;;;;;5.57;94.05;104041.78;5090627;28;20058;-76
2022/01/12 12:21:07;;;;;;;54.85;13.43;;;;;;;5.69;93.80;104038.19;5090645;28;20082;-77
2022/01/12 12:23:33;;;;;;;40.70;11.98;;;;;;;5.77;93.83;104044.66;5091407;28;20373;-77
2022/01/12 12:26:08;;;;;;;52.45;15.30;;;;;;;5.77;94.07;104049.16;5090731;28;20040;-78
2022/01/12 12:28:34;;;;;;;52.95;14.85;;;;;;;5.74;94.04;104054.72;5090699;28;20044;-76
2022/01/12 12:30:59;;;;;;;49.58;14.02;;;;;;;5.83;93.73;104064.69;5092152;28;20035;-77
2022/01/12 12:33:25;;;;;;;48.97;15.50;;;;;;;5.88;94.05;104055.41;5090275;28;20032;-77
2022/01/12 12:35:50;;;;;;;61.75;16.52;;;;;;;5.82;93.64;104055.84;5090014;28;20036;-76
2022/01/12 12:38:17;;;;;;;49.38;15.68;;;;;;;5.82;94.10;104057.66;5090946;28;20024;-77